createdAt,value
2023-02-22T00:02:25.827Z,26.83
2023-02-22T00:04:58.350Z,25.15
2023-02-22T00:07:34.202Z,28.33
2023-02-22T00:10:09.658Z,37.95
2023-02-22T00:12:46.100Z,29.52
2023-02-22T00:15:19.601Z,28.02
2023-02-22T00:17:52.361Z,24.50
2023-02-22T00:20:25.275Z,29.92
2023-02-22T00:23:21.956Z,23.35
2023-02-22T00:25:54.355Z,33.75
2023-02-22T00:28:30.926Z,33.20
2023-02-22T00:31:04.258Z,34.20
2023-02-22T00:33:37.281Z,32.20
2023-02-22T00:36:15.128Z,37.28
2023-02-22T00:38:54.974Z,39.42
2023-02-22T00:41:26.406Z,37.42
2023-02-22T00:43:58.047Z,26.05
2023-02-22T00:46:29.885Z,25.08
2023-02-22T00:49:04.525Z,30.38
2023-02-22T00:51:38.233Z,25.88
2023-02-22T00:54:21.091Z,27.80
2023-02-22T00:56:55.517Z,30.77
2023-02-22T00:59:28.177Z,27.02
2023-02-22T01:02:00.277Z,28.23
2023-02-22T01:04:41.555Z,35.35
2023-02-22T01:07:14.717Z,34.42
2023-02-22T01:09:49.625Z,30.17
2023-02-22T01:12:21.434Z,41.17
2023-02-22T01:14:57.307Z,32.40
2023-02-22T01:17:29.463Z,29.70
2023-02-22T01:20:01.539Z,36.03
2023-02-22T01:22:33.494Z,31.73
2023-02-22T01:25:09.011Z,28.80
2023-02-22T01:27:42.410Z,27.90
2023-02-22T01:30:16.805Z,38.72
2023-02-22T01:32:51.449Z,31.63
2023-02-22T01:35:26.286Z,34.08
2023-02-22T01:37:58.396Z,28.55
2023-02-22T01:40:36.283Z,24.23
2023-02-22T01:43:18.725Z,27.75
2023-02-22T01:45:58.484Z,28.95
2023-02-22T01:48:37.231Z,29.20
2023-02-22T01:51:14.947Z,30.83
2023-02-22T01:53:53.634Z,37.13
2023-02-22T01:56:30.978Z,32.10
2023-02-22T01:59:07.237Z,34.65
2023-02-22T02:01:43.325Z,31.15
2023-02-22T02:04:18.703Z,25.60
2023-02-22T02:06:51.818Z,22.08
2023-02-22T02:09:32.027Z,32.67
2023-02-22T02:12:08.509Z,36.75
2023-02-22T02:14:41.260Z,32.17
2023-02-22T02:17:16.554Z,29.15
2023-02-22T02:19:55.718Z,24.23
2023-02-22T02:22:45.810Z,35.20
2023-02-22T02:25:53.069Z,27.50
2023-02-22T02:29:04.750Z,29.35
2023-02-22T02:32:13.420Z,32.47
2023-02-22T02:34:58.843Z,32.42
2023-02-22T02:37:40.611Z,29.95
2023-02-22T02:40:24.100Z,29.88
2023-02-22T02:43:04.013Z,30.20
2023-02-22T02:45:42.369Z,34.47
2023-02-22T02:48:17.733Z,35.05
2023-02-22T02:50:53.851Z,29.25
2023-02-22T02:53:36.429Z,42.95
2023-02-22T02:56:09.103Z,31.77
2023-02-22T02:58:53.382Z,31.38
2023-02-22T03:01:48.437Z,31.50
2023-02-22T03:04:47.513Z,36.33
2023-02-22T03:07:43.593Z,34.03
2023-02-22T03:10:42.112Z,34.22
2023-02-22T03:13:22.967Z,26.20
2023-02-22T03:16:05.417Z,30.80
2023-02-22T03:18:48.102Z,33.22
2023-02-22T03:21:27.904Z,31.98
2023-02-22T03:24:21.794Z,37.00
2023-02-22T03:27:00.426Z,33.70
2023-02-22T03:29:37.627Z,25.85
2023-02-22T03:32:15.468Z,26.50
2023-02-22T03:34:50.999Z,28.77
2023-02-22T03:37:36.264Z,32.88
2023-02-22T03:40:27.007Z,35.90
2023-02-22T03:43:41.586Z,40.53
2023-02-22T03:46:23.351Z,29.63
2023-02-22T03:49:03.461Z,30.90
2023-02-22T03:51:35.926Z,31.00
2023-02-22T03:54:17.136Z,36.40
2023-02-22T03:57:01.931Z,29.52
2023-02-22T03:59:34.092Z,32.33
2023-02-22T04:02:06.176Z,30.73
2023-02-22T04:04:52.377Z,32.70
2023-02-22T04:07:39.925Z,32.45
2023-02-22T04:10:12.720Z,35.08
2023-02-22T04:12:47.467Z,22.77
2023-02-22T04:15:54.530Z,35.83
2023-02-22T04:18:24.386Z,28.60
2023-02-22T04:20:56.606Z,33.00
2023-02-22T04:23:28.933Z,40.63
2023-02-22T04:26:01.331Z,32.90
2023-02-22T04:28:36.008Z,25.98
2023-02-22T04:31:08.917Z,37.60
2023-02-22T04:33:40.996Z,37.00
2023-02-22T04:36:16.382Z,41.15
2023-02-22T04:38:48.533Z,33.03
2023-02-22T04:41:23.872Z,39.17
2023-02-22T04:43:59.796Z,30.67
2023-02-22T04:46:32.139Z,35.90
2023-02-22T04:49:04.465Z,36.05
2023-02-22T04:51:37.127Z,38.47
2023-02-22T04:54:09.336Z,37.05
2023-02-22T04:56:41.934Z,29.13
2023-02-22T04:59:16.696Z,33.65
2023-02-22T05:01:49.336Z,41.00
2023-02-22T05:04:45.562Z,34.67
2023-02-22T05:07:18.443Z,41.83
2023-02-22T05:09:50.420Z,37.38
2023-02-22T05:12:22.849Z,36.45
2023-02-22T05:14:57.502Z,33.25
2023-02-22T05:17:29.844Z,37.17
2023-02-22T05:20:02.201Z,41.33
2023-02-22T05:22:34.681Z,32.10
2023-02-22T05:25:07.492Z,37.15
2023-02-22T05:27:39.891Z,33.70
2023-02-22T05:30:16.839Z,33.60
2023-02-22T05:32:49.752Z,31.95
2023-02-22T05:35:22.536Z,39.72
2023-02-22T05:37:55.453Z,39.92
2023-02-22T05:40:29.815Z,38.45
2023-02-22T05:43:03.257Z,40.05
2023-02-22T05:45:37.756Z,32.25
2023-02-22T05:48:09.878Z,34.60
2023-02-22T05:50:41.796Z,42.78
2023-02-22T05:53:14.207Z,34.75
2023-02-22T05:55:46.632Z,41.03
2023-02-22T05:58:19.309Z,33.85
2023-02-22T06:00:53.875Z,32.42
2023-02-22T06:03:26.096Z,35.30
2023-02-22T06:05:58.298Z,25.92
2023-02-22T06:08:30.572Z,37.92
2023-02-22T06:11:30.552Z,38.40
2023-02-22T06:14:02.820Z,35.45
2023-02-22T06:16:37.709Z,25.10
2023-02-22T06:19:09.903Z,38.13
2023-02-22T06:21:42.392Z,32.58
2023-02-22T06:24:14.630Z,29.17
2023-02-22T06:26:46.603Z,36.00
2023-02-22T06:29:18.985Z,32.55
2023-02-22T06:31:54.299Z,33.83
2023-02-22T06:34:26.389Z,38.30
2023-02-22T06:36:59.994Z,32.97
2023-02-22T06:39:32.384Z,43.45
2023-02-22T06:42:04.771Z,31.92
2023-02-22T06:44:37.153Z,33.63
2023-02-22T06:47:11.757Z,34.17
2023-02-22T06:49:44.010Z,40.35
2023-02-22T06:52:15.811Z,33.10
2023-02-22T06:54:47.999Z,34.58
2023-02-22T06:57:20.793Z,33.25
2023-02-22T06:59:52.958Z,37.60
2023-02-22T07:02:33.008Z,38.50
2023-02-22T07:05:18.547Z,35.60
2023-02-22T07:07:52.708Z,33.42
2023-02-22T07:10:31.320Z,33.00
2023-02-22T07:13:03.719Z,32.38
2023-02-22T07:15:37.036Z,41.47
2023-02-22T07:18:12.333Z,34.20
2023-02-22T07:20:44.450Z,34.42
2023-02-22T07:23:18.334Z,43.13
2023-02-22T07:25:50.335Z,37.97
2023-02-22T07:28:22.236Z,40.90
2023-02-22T07:30:54.658Z,32.72
2023-02-22T07:33:29.230Z,29.92
2023-02-22T07:36:01.816Z,47.00
2023-02-22T07:38:34.154Z,38.38
2023-02-22T07:41:06.739Z,29.40
2023-02-22T07:43:39.229Z,35.13
2023-02-22T07:46:11.735Z,35.72
2023-02-22T07:48:46.871Z,37.67
2023-02-22T07:51:21.195Z,43.97
2023-02-22T07:53:53.340Z,32.03
2023-02-22T07:56:25.573Z,41.22
2023-02-22T07:58:57.523Z,40.72
2023-02-22T08:01:29.835Z,44.72
2023-02-22T08:04:04.677Z,39.25
2023-02-22T08:06:37.191Z,38.15
2023-02-22T08:09:09.614Z,43.47
2023-02-22T08:11:42.316Z,37.67
2023-02-22T08:14:14.711Z,42.65
2023-02-22T08:16:47.490Z,40.10
2023-02-22T08:19:23.263Z,39.25
2023-02-22T08:21:56.112Z,43.38
2023-02-22T08:24:28.484Z,37.53
2023-02-22T08:27:01.113Z,41.13
2023-02-22T08:29:34.711Z,40.45
2023-02-22T08:32:08.269Z,39.40
2023-02-22T08:34:43.838Z,45.70
2023-02-22T08:37:17.115Z,42.38
2023-02-22T08:39:50.192Z,38.47
2023-02-22T08:42:23.255Z,37.50
2023-02-22T08:44:56.376Z,41.15
2023-02-22T08:47:30.182Z,41.15
2023-02-22T08:50:05.537Z,33.45
2023-02-22T08:52:38.688Z,37.00
2023-02-22T08:55:12.172Z,39.05
2023-02-22T08:57:45.531Z,38.63
2023-02-22T09:00:20.267Z,42.70
2023-02-22T09:02:54.099Z,32.60
2023-02-22T09:05:31.320Z,40.33
2023-02-22T09:08:05.457Z,31.17
2023-02-22T09:10:41.132Z,30.67
2023-02-22T09:13:14.607Z,36.40
2023-02-22T09:15:46.889Z,38.58
2023-02-22T09:18:21.492Z,37.35
2023-02-22T09:20:56.647Z,31.67
2023-02-22T09:23:30.289Z,33.10
2023-02-22T09:26:02.925Z,33.95
2023-02-22T09:28:35.525Z,27.00
2023-02-22T09:31:08.084Z,36.45
2023-02-22T09:33:40.811Z,32.97
2023-02-22T09:36:16.159Z,36.03
2023-02-22T09:38:49.006Z,35.63
2023-02-22T09:41:35.214Z,30.30
2023-02-22T09:44:20.203Z,35.70
2023-02-22T09:46:56.530Z,26.42
2023-02-22T09:49:38.239Z,25.85
2023-02-22T09:52:22.125Z,29.27
2023-02-22T09:55:05.547Z,22.13
2023-02-22T09:57:42.993Z,21.83
2023-02-22T10:00:21.583Z,27.48
2023-02-22T10:03:04.374Z,25.63
2023-02-22T10:05:44.142Z,26.20
2023-02-22T10:11:28.971Z,32.28
2023-02-22T10:14:09.897Z,35.42
2023-02-22T10:16:53.761Z,37.33
2023-02-22T10:19:35.848Z,30.92
2023-02-22T10:22:30.770Z,27.92
2023-02-22T10:25:09.798Z,27.30
2023-02-22T10:27:46.566Z,27.48
2023-02-22T10:30:25.738Z,29.77
2023-02-22T10:33:05.748Z,27.67
2023-02-22T10:35:41.536Z,21.27
2023-02-22T10:38:23.929Z,33.53
2023-02-22T10:41:04.207Z,29.23
2023-02-22T10:43:36.799Z,25.42
2023-02-22T10:46:12.807Z,26.35
2023-02-22T10:48:48.324Z,25.30
2023-02-22T10:51:34.205Z,31.70
2023-02-22T10:54:27.249Z,26.73
2023-02-22T10:57:04.521Z,28.65
2023-02-22T10:59:38.842Z,29.77
2023-02-22T11:02:21.800Z,25.90
2023-02-22T11:04:57.460Z,28.67
2023-02-22T11:07:32.218Z,27.83
2023-02-22T11:10:08.559Z,31.60
2023-02-22T11:12:48.247Z,23.85
2023-02-22T11:15:32.319Z,33.92
2023-02-22T11:18:07.511Z,26.20
2023-02-22T11:20:43.358Z,24.60
2023-02-22T11:23:15.940Z,31.90
2023-02-22T11:25:48.564Z,34.35
2023-02-22T11:28:33.207Z,23.92
2023-02-22T11:31:19.824Z,27.67
2023-02-22T11:33:58.479Z,27.48
2023-02-22T11:36:41.404Z,27.38
2023-02-22T11:39:28.474Z,31.58
2023-02-22T11:42:01.602Z,25.45
2023-02-22T11:44:37.279Z,34.42
2023-02-22T11:47:15.755Z,27.92
2023-02-22T11:49:49.562Z,23.95
2023-02-22T11:52:28.729Z,25.63
2023-02-22T11:55:13.115Z,27.00
2023-02-22T11:57:57.514Z,28.70
2023-02-22T12:00:43.836Z,24.20
2023-02-22T12:03:42.529Z,26.98
2023-02-22T12:06:25.773Z,34.90
2023-02-22T12:09:10.549Z,32.20
2023-02-22T12:11:55.374Z,25.60
2023-02-22T12:14:38.437Z,29.30
2023-02-22T12:17:35.516Z,27.13
2023-02-22T12:20:21.927Z,25.30
2023-02-22T12:23:10.192Z,20.52
2023-02-22T12:25:50.999Z,29.20
2023-02-22T12:28:28.199Z,21.35
2023-02-22T12:31:17.865Z,26.60
2023-02-22T12:34:13.265Z,24.00
2023-02-22T12:36:52.276Z,23.80
2023-02-22T12:39:52.224Z,23.33
2023-02-22T12:42:33.285Z,24.80
2023-02-22T12:45:11.772Z,27.85
2023-02-22T12:48:05.648Z,24.58
2023-02-22T12:50:50.160Z,25.35
2023-02-22T12:53:29.204Z,15.45
2023-02-22T12:59:30.044Z,29.00
2023-02-22T13:02:15.049Z,28.10
2023-02-22T13:04:47.971Z,75.90
2023-02-22T13:07:43.606Z,24.25
2023-02-22T13:10:38.845Z,28.20
2023-02-22T13:13:23.028Z,25.48
2023-02-22T13:16:04.489Z,25.40
2023-02-22T13:18:43.131Z,22.95
2023-02-22T13:21:24.053Z,23.77
2023-02-22T13:24:06.933Z,25.70
2023-02-22T13:26:48.728Z,30.10
2023-02-22T13:29:32.009Z,16.48
2023-02-22T13:32:17.323Z,21.15
2023-02-22T13:35:01.491Z,21.25
2023-02-22T13:37:50.489Z,18.35
2023-02-22T13:40:47.246Z,30.10
2023-02-22T13:43:52.164Z,24.88
2023-02-22T13:46:59.544Z,21.75
2023-02-22T13:49:50.746Z,25.67
2023-02-22T13:52:25.507Z,17.40
2023-02-22T13:55:01.762Z,23.02
2023-02-22T13:57:41.064Z,20.20
2023-02-22T14:00:43.283Z,22.92
2023-02-22T14:03:36.671Z,18.15
2023-02-22T14:06:10.181Z,22.67
2023-02-22T14:08:43.445Z,25.58
2023-02-22T14:11:43.926Z,19.27
2023-02-22T14:14:20.702Z,21.98
2023-02-22T14:17:27.589Z,18.83
2023-02-22T14:20:30.443Z,19.77
2023-02-22T14:23:37.320Z,26.33
2023-02-22T14:26:20.527Z,22.13
2023-02-22T14:28:57.744Z,25.02
2023-02-22T14:31:37.648Z,22.33
2023-02-22T14:34:16.441Z,25.77
2023-02-22T14:36:55.105Z,25.80
2023-02-22T14:39:37.896Z,23.25
2023-02-22T14:42:15.989Z,26.80
2023-02-22T14:44:57.678Z,23.00
2023-02-22T14:47:40.059Z,20.35
2023-02-22T14:50:23.437Z,17.73
2023-02-22T14:53:04.466Z,20.83
2023-02-22T14:55:42.149Z,20.95
2023-02-22T14:58:21.892Z,18.25
2023-02-22T15:00:57.215Z,23.73
2023-02-22T15:03:40.043Z,19.75
2023-02-22T15:09:30.224Z,19.42
2023-02-22T15:12:18.684Z,26.73
2023-02-22T15:14:52.017Z,21.02
2023-02-22T15:17:27.848Z,24.52
2023-02-22T15:20:02.263Z,19.45
2023-02-22T15:22:40.036Z,22.95
2023-02-22T15:25:15.243Z,25.60
2023-02-22T15:27:50.284Z,21.88
2023-02-22T15:30:30.091Z,19.27
2023-02-22T15:33:15.399Z,19.27
2023-02-22T15:35:57.050Z,23.35
2023-02-22T15:38:32.621Z,25.13
2023-02-22T15:41:08.868Z,19.15
2023-02-22T15:43:41.338Z,22.38
2023-02-22T15:46:16.461Z,27.90
2023-02-22T15:49:07.066Z,32.58
2023-02-22T15:51:46.779Z,26.35
2023-02-22T15:54:27.174Z,16.83
2023-02-22T15:57:00.369Z,21.88
2023-02-22T15:59:35.319Z,18.73
2023-02-22T16:02:08.545Z,22.92
2023-02-22T16:04:45.912Z,25.50
2023-02-22T16:07:24.417Z,20.70
2023-02-22T16:09:56.341Z,21.90
2023-02-22T16:12:31.027Z,15.18
2023-02-22T16:15:03.217Z,16.00
2023-02-22T16:17:56.050Z,29.75
2023-02-22T16:20:39.050Z,20.27
2023-02-22T16:23:29.132Z,17.45
2023-02-22T16:26:23.602Z,21.55
2023-02-22T16:28:58.331Z,21.92
2023-02-22T16:31:34.164Z,23.60
2023-02-22T16:34:06.921Z,23.98
2023-02-22T16:36:45.376Z,22.42
2023-02-22T16:39:25.289Z,24.23
2023-02-22T16:41:59.804Z,22.58
2023-02-22T16:44:31.617Z,25.00
2023-02-22T16:47:03.740Z,22.85
2023-02-22T16:49:35.122Z,26.48
2023-02-22T16:52:10.605Z,24.10
2023-02-22T16:54:48.831Z,25.48
2023-02-22T16:57:23.954Z,20.27
2023-02-22T16:59:55.573Z,25.23
2023-02-22T17:02:28.133Z,23.88
2023-02-22T17:04:59.919Z,25.80
2023-02-22T17:07:33.024Z,26.45
2023-02-22T17:10:08.903Z,28.30
2023-02-22T17:12:44.301Z,29.17
2023-02-22T17:15:24.998Z,21.17
2023-02-22T17:17:59.943Z,18.85
2023-02-22T17:20:33.180Z,25.67
2023-02-22T17:23:08.597Z,23.83
2023-02-22T17:25:45.985Z,23.38
2023-02-22T17:28:19.225Z,23.70
2023-02-22T17:30:52.268Z,25.02
2023-02-22T17:33:28.157Z,22.65
2023-02-22T17:36:02.418Z,27.05
2023-02-22T17:38:35.752Z,24.13
2023-02-22T17:41:11.627Z,27.45
2023-02-22T17:43:43.956Z,22.38
2023-02-22T17:46:16.129Z,25.20
2023-02-22T17:48:49.219Z,18.63
2023-02-22T17:51:21.481Z,20.48
2023-02-22T17:53:55.606Z,21.52
2023-02-22T17:56:29.898Z,18.15
2023-02-22T17:59:02.057Z,15.00
2023-02-22T18:01:35.838Z,22.45
2023-02-22T18:04:08.305Z,23.35
2023-02-22T18:06:53.783Z,16.35
2023-02-22T18:09:26.604Z,23.25
2023-02-22T18:12:01.825Z,18.70
2023-02-22T18:14:34.469Z,20.42
2023-02-22T18:17:06.219Z,21.90
2023-02-22T18:19:38.336Z,17.45
2023-02-22T18:22:11.012Z,17.13
2023-02-22T18:24:43.256Z,17.55
2023-02-22T18:27:18.004Z,16.23
2023-02-22T18:29:50.317Z,17.38
2023-02-22T18:32:22.418Z,20.92
2023-02-22T18:34:55.035Z,19.75
2023-02-22T18:37:28.579Z,17.42
2023-02-22T18:40:02.047Z,19.42
2023-02-22T18:42:40.353Z,21.90
2023-02-22T18:45:14.526Z,16.50
2023-02-22T18:47:47.537Z,20.17
2023-02-22T18:50:19.686Z,19.67
2023-02-22T18:52:51.312Z,20.38
2023-02-22T18:55:24.419Z,12.55
2023-02-22T18:57:59.745Z,12.13
2023-02-22T19:00:31.830Z,21.63
2023-02-22T19:03:05.535Z,25.13
2023-02-22T19:05:39.166Z,15.10
2023-02-22T19:08:11.849Z,16.48
2023-02-22T19:10:44.168Z,20.95
2023-02-22T19:13:19.408Z,19.80
2023-02-22T19:15:51.780Z,20.92
2023-02-22T19:18:24.009Z,17.48
2023-02-22T19:21:00.187Z,15.90
2023-02-22T19:23:34.536Z,20.30
2023-02-22T19:26:09.684Z,18.27
2023-02-22T19:28:44.520Z,21.33
2023-02-22T19:31:18.586Z,18.73
2023-02-22T19:33:53.844Z,18.52
2023-02-22T19:36:26.479Z,17.83
2023-02-22T19:38:58.324Z,16.95
2023-02-22T19:41:30.679Z,20.08
2023-02-22T19:44:05.179Z,19.13
2023-02-22T19:46:38.072Z,16.48
2023-02-22T19:49:10.912Z,16.85
2023-02-22T19:51:43.153Z,26.38
2023-02-22T19:54:21.161Z,20.45
2023-02-22T19:56:54.824Z,19.52
2023-02-22T19:59:29.171Z,18.77
2023-02-22T20:02:03.002Z,20.52
2023-02-22T20:04:34.392Z,17.90
2023-02-22T20:07:06.587Z,19.15
2023-02-22T20:09:40.705Z,20.15
2023-02-22T20:12:12.454Z,21.75
2023-02-22T20:14:46.913Z,21.73
2023-02-22T20:17:18.706Z,18.58
2023-02-22T20:19:50.748Z,19.45
2023-02-22T20:22:22.698Z,23.50
2023-02-22T20:24:54.267Z,25.75
2023-02-22T20:27:27.486Z,19.83
2023-02-22T20:30:01.651Z,16.30
2023-02-22T20:32:36.013Z,20.33
2023-02-22T20:35:08.998Z,21.42
2023-02-22T20:37:42.749Z,18.98
2023-02-22T20:40:14.316Z,21.95
2023-02-22T20:42:47.951Z,20.52
2023-02-22T20:45:21.977Z,23.10
2023-02-22T20:47:54.959Z,20.75
2023-02-22T20:50:26.512Z,19.85
2023-02-22T20:52:59.205Z,21.13
2023-02-22T20:55:31.519Z,24.60
2023-02-22T20:58:03.809Z,29.13
2023-02-22T21:00:38.119Z,22.35
2023-02-22T21:03:10.319Z,26.40
2023-02-22T21:05:45.844Z,26.38
2023-02-22T21:08:18.666Z,21.17
2023-02-22T21:10:51.788Z,24.42
2023-02-22T21:13:24.926Z,26.35
2023-02-22T21:15:59.930Z,29.10
2023-02-22T21:18:32.313Z,26.67
2023-02-22T21:21:10.632Z,22.02
2023-02-22T21:23:44.547Z,27.23
2023-02-22T21:26:19.056Z,27.38
2023-02-22T21:28:51.922Z,26.98
2023-02-22T21:31:28.247Z,23.90
2023-02-22T21:34:02.614Z,30.55
2023-02-22T21:36:35.408Z,26.48
2023-02-22T21:39:18.470Z,23.13
2023-02-22T21:44:47.235Z,23.95
2023-02-22T21:47:22.299Z,29.92
2023-02-22T21:49:54.112Z,28.08
2023-02-22T21:52:26.774Z,30.73
2023-02-22T21:54:58.694Z,32.10
2023-02-22T21:57:32.430Z,28.83
2023-02-22T22:00:13.120Z,27.00
2023-02-22T22:02:49.302Z,30.40
2023-02-22T22:05:31.950Z,35.22
2023-02-22T22:08:05.863Z,23.00
2023-02-22T22:10:37.050Z,29.50
2023-02-22T22:13:09.233Z,28.98
2023-02-22T22:15:40.934Z,34.10
2023-02-22T22:18:18.434Z,40.67
2023-02-22T22:20:52.026Z,25.55
2023-02-22T22:23:26.688Z,35.35
2023-02-22T22:26:09.941Z,30.25
2023-02-22T22:28:46.364Z,37.92
2023-02-22T22:31:24.187Z,28.70
2023-02-22T22:34:00.570Z,34.58
2023-02-22T22:36:34.964Z,34.55
2023-02-22T22:39:14.621Z,33.00
2023-02-22T22:41:50.286Z,33.55
2023-02-22T22:44:22.628Z,32.50
2023-02-22T22:47:06.207Z,34.58
2023-02-22T22:49:43.105Z,31.83
2023-02-22T22:52:16.766Z,36.75
2023-02-22T22:54:50.925Z,29.05
2023-02-22T22:57:23.810Z,32.53
2023-02-22T22:59:56.289Z,31.35
2023-02-22T23:02:29.472Z,33.95
2023-02-22T23:05:13.153Z,39.45
2023-02-22T23:07:45.017Z,34.60
2023-02-22T23:10:17.138Z,36.00
2023-02-22T23:12:48.916Z,37.08
2023-02-22T23:15:21.288Z,41.25
2023-02-22T23:17:56.290Z,35.65
2023-02-22T23:20:31.022Z,33.50
2023-02-22T23:23:03.032Z,37.25
2023-02-22T23:25:35.261Z,41.63
2023-02-22T23:28:14.894Z,41.63
2023-02-22T23:30:47.263Z,35.33
2023-02-22T23:33:19.501Z,45.63
2023-02-22T23:35:54.388Z,44.95
2023-02-22T23:38:26.981Z,35.75
2023-02-22T23:40:59.463Z,36.72
2023-02-22T23:43:32.795Z,40.03
2023-02-22T23:46:11.029Z,42.35
2023-02-22T23:48:46.841Z,44.67
2023-02-22T23:51:25.825Z,36.72
2023-02-22T23:53:58.668Z,38.05
2023-02-22T23:56:31.299Z,43.53
2023-02-22T23:59:06.995Z,42.90
